createdAt,value
2022-09-07T00:02:26.271Z,4.45
2022-09-07T00:04:54.003Z,4.60
2022-09-07T00:07:21.615Z,4.07
2022-09-07T00:09:51.269Z,4.28
2022-09-07T00:12:18.883Z,4.32
2022-09-07T00:14:46.494Z,4.68
2022-09-07T00:17:14.128Z,5.22
2022-09-07T00:19:41.786Z,4.65
2022-09-07T00:22:09.469Z,4.20
2022-09-07T00:24:37.135Z,4.18
2022-09-07T00:27:04.810Z,4.30
2022-09-07T00:29:32.414Z,4.30
2022-09-07T00:32:00.011Z,4.35
2022-09-07T00:34:27.669Z,4.65
2022-09-07T00:36:55.285Z,4.45
2022-09-07T00:39:22.905Z,5.32
2022-09-07T00:41:50.512Z,4.95
2022-09-07T00:44:36.914Z,3.88
2022-09-07T00:47:05.344Z,4.25
2022-09-07T00:49:34.047Z,4.10
2022-09-07T00:52:04.182Z,4.15
2022-09-07T00:54:41.348Z,3.97
2022-09-07T00:57:09.373Z,4.13
2022-09-07T00:59:39.506Z,3.30
2022-09-07T01:02:07.559Z,4.53
2022-09-07T01:04:35.856Z,4.07
2022-09-07T01:07:04.019Z,4.13
2022-09-07T01:09:32.015Z,4.32
2022-09-07T01:12:00.504Z,3.85
2022-09-07T01:14:36.762Z,4.13
2022-09-07T01:17:11.080Z,3.85
2022-09-07T01:19:38.696Z,3.85
2022-09-07T01:22:27.929Z,4.28
2022-09-07T01:25:14.481Z,4.28
2022-09-07T01:27:42.067Z,3.85
2022-09-07T01:30:14.106Z,4.13
2022-09-07T01:32:57.055Z,3.83
2022-09-07T01:35:30.077Z,4.35
2022-09-07T01:38:09.537Z,4.00
2022-09-07T01:40:37.149Z,4.03
2022-09-07T01:43:08.016Z,4.15
2022-09-07T01:45:37.021Z,3.80
2022-09-07T01:48:09.133Z,3.85
2022-09-07T01:50:44.729Z,3.50
2022-09-07T01:53:19.800Z,3.20
2022-09-07T01:55:59.447Z,3.40
2022-09-07T01:58:29.952Z,4.00
2022-09-07T02:01:01.859Z,3.40
2022-09-07T02:03:29.421Z,3.95
2022-09-07T02:06:02.726Z,3.60
2022-09-07T02:08:36.521Z,3.58
2022-09-07T02:11:07.646Z,3.58
2022-09-07T02:13:41.009Z,3.05
2022-09-07T02:16:15.385Z,3.13
2022-09-07T02:18:45.905Z,3.15
2022-09-07T02:21:14.703Z,3.05
2022-09-07T02:23:46.979Z,2.55
2022-09-07T02:26:17.064Z,3.22
2022-09-07T02:28:44.939Z,2.80
2022-09-07T02:31:12.656Z,2.80
2022-09-07T02:33:40.437Z,2.78
2022-09-07T02:36:08.196Z,2.45
2022-09-07T02:38:36.079Z,2.80
2022-09-07T02:41:04.660Z,2.60
2022-09-07T02:43:32.993Z,2.88
2022-09-07T02:46:03.519Z,2.50
2022-09-07T02:48:51.269Z,2.40
2022-09-07T02:51:43.903Z,2.35
2022-09-07T02:54:14.407Z,2.33
2022-09-07T02:57:00.479Z,2.95
2022-09-07T02:59:46.246Z,2.35
2022-09-07T03:02:29.902Z,2.70
2022-09-07T03:05:02.642Z,2.60
2022-09-07T03:07:43.491Z,2.45
2022-09-07T03:10:15.153Z,2.42
2022-09-07T03:12:47.174Z,2.60
2022-09-07T03:15:16.024Z,2.70
2022-09-07T03:17:44.577Z,2.13
2022-09-07T03:20:12.422Z,2.70
2022-09-07T03:22:40.117Z,2.53
2022-09-07T03:25:08.077Z,2.47
2022-09-07T03:27:35.780Z,2.50
2022-09-07T03:30:03.776Z,2.70
2022-09-07T03:32:32.333Z,2.45
2022-09-07T03:35:00.238Z,2.00
2022-09-07T03:37:28.225Z,2.53
2022-09-07T03:39:55.981Z,2.40
2022-09-07T03:42:23.873Z,2.38
2022-09-07T03:44:51.489Z,2.70
2022-09-07T03:47:19.424Z,2.30
2022-09-07T03:49:48.854Z,2.08
2022-09-07T03:52:16.474Z,2.10
2022-09-07T03:54:44.155Z,2.03
2022-09-07T03:57:11.801Z,2.58
2022-09-07T03:59:39.503Z,2.42
2022-09-07T04:02:07.222Z,2.38
2022-09-07T04:04:34.946Z,2.45
2022-09-07T04:07:02.571Z,2.65
2022-09-07T04:09:30.459Z,2.42
2022-09-07T04:11:58.074Z,2.70
2022-09-07T04:14:25.705Z,2.40
2022-09-07T04:16:53.453Z,2.15
2022-09-07T04:19:21.100Z,2.63
2022-09-07T04:21:49.023Z,2.75
2022-09-07T04:24:18.896Z,2.60
2022-09-07T04:26:47.348Z,2.72
2022-09-07T04:29:14.982Z,2.63
2022-09-07T04:31:42.650Z,2.13
2022-09-07T04:34:10.902Z,2.40
2022-09-07T04:36:38.516Z,2.58
2022-09-07T04:39:06.863Z,2.38
2022-09-07T04:41:34.859Z,2.72
2022-09-07T04:44:03.449Z,2.33
2022-09-07T04:46:33.724Z,2.60
2022-09-07T04:49:02.953Z,2.70
2022-09-07T04:51:31.320Z,2.75
2022-09-07T04:54:00.004Z,3.25
2022-09-07T04:56:27.985Z,2.75
2022-09-07T04:58:55.645Z,2.70
2022-09-07T05:01:24.231Z,3.00
2022-09-07T05:03:51.934Z,2.50
2022-09-07T05:06:20.210Z,2.70
2022-09-07T05:08:49.718Z,2.97
2022-09-07T05:11:17.804Z,3.00
2022-09-07T05:13:45.632Z,3.00
2022-09-07T05:16:14.792Z,3.17
2022-09-07T05:18:43.509Z,2.92
2022-09-07T05:21:15.339Z,3.28
2022-09-07T05:26:11.123Z,2.35
2022-09-07T05:28:39.155Z,2.53
2022-09-07T05:31:23.492Z,2.88
2022-09-07T05:36:40.397Z,2.45
2022-09-07T05:39:08.930Z,2.70
2022-09-07T05:41:36.545Z,2.58
2022-09-07T05:46:52.703Z,2.83
2022-09-07T05:49:20.371Z,2.53
2022-09-07T05:51:48.442Z,2.80
2022-09-07T05:54:16.447Z,2.88
2022-09-07T05:56:44.140Z,3.35
2022-09-07T05:59:11.832Z,2.90
2022-09-07T06:01:39.705Z,2.47
2022-09-07T06:04:07.358Z,2.92
2022-09-07T06:06:38.324Z,2.75
2022-09-07T06:09:05.926Z,2.23
2022-09-07T06:11:33.578Z,2.83
2022-09-07T06:14:01.190Z,2.63
2022-09-07T06:16:29.949Z,2.97
2022-09-07T06:18:57.572Z,2.80
2022-09-07T06:21:25.397Z,3.00
2022-09-07T06:23:53.249Z,2.92
2022-09-07T06:26:20.920Z,2.85
2022-09-07T06:28:51.390Z,3.05
2022-09-07T06:31:21.537Z,2.80
2022-09-07T06:33:49.812Z,3.42
2022-09-07T06:36:24.440Z,3.30
2022-09-07T06:38:52.538Z,3.55
2022-09-07T06:44:09.303Z,2.60
2022-09-07T06:49:25.451Z,3.50
2022-09-07T06:51:53.105Z,2.92
2022-09-07T06:57:09.297Z,2.47
2022-09-07T06:59:37.713Z,2.50
2022-09-07T07:02:08.133Z,2.53
2022-09-07T07:04:40.496Z,3.17
2022-09-07T07:07:12.659Z,2.50
2022-09-07T07:09:40.922Z,2.40
2022-09-07T07:12:08.558Z,2.28
2022-09-07T07:14:39.731Z,2.63
2022-09-07T07:17:11.214Z,2.25
2022-09-07T07:19:38.843Z,2.08
2022-09-07T07:24:54.101Z,2.30
2022-09-07T07:27:22.836Z,1.95
2022-09-07T07:29:50.571Z,2.13
2022-09-07T07:32:18.488Z,1.95
2022-09-07T07:34:46.088Z,2.03
2022-09-07T07:37:13.669Z,1.67
2022-09-07T07:42:29.992Z,1.70
2022-09-07T07:47:50.283Z,1.83
2022-09-07T07:50:34.266Z,1.80
2022-09-07T07:55:50.403Z,1.67
2022-09-07T07:58:19.456Z,1.80
2022-09-07T08:00:56.114Z,1.85
2022-09-07T08:03:24.804Z,1.77
2022-09-07T08:05:52.815Z,1.80
2022-09-07T08:08:20.778Z,1.52
2022-09-07T08:10:48.404Z,1.70
2022-09-07T08:13:19.147Z,2.03
2022-09-07T08:15:47.091Z,2.03
2022-09-07T08:18:16.002Z,1.50
2022-09-07T08:20:43.901Z,1.85
2022-09-07T08:23:13.097Z,1.40
2022-09-07T08:25:49.664Z,1.85
2022-09-07T08:28:17.189Z,1.80
2022-09-07T08:30:44.775Z,1.90
2022-09-07T08:33:12.357Z,1.80
2022-09-07T08:35:39.966Z,1.55
2022-09-07T08:38:07.872Z,1.85
2022-09-07T08:40:38.766Z,1.77
2022-09-07T08:43:18.203Z,1.93
2022-09-07T08:45:53.436Z,1.70
2022-09-07T08:48:24.495Z,1.60
2022-09-07T08:51:22.355Z,2.00
2022-09-07T08:53:51.740Z,1.60
2022-09-07T08:56:33.457Z,1.67
2022-09-07T08:59:03.782Z,1.73
2022-09-07T09:01:33.207Z,1.63
2022-09-07T09:04:17.815Z,1.88
2022-09-07T09:06:45.977Z,2.00
2022-09-07T09:09:32.052Z,1.70
2022-09-07T09:12:20.146Z,1.70
2022-09-07T09:14:50.724Z,1.80
2022-09-07T09:17:25.083Z,1.63
2022-09-07T09:19:59.487Z,1.95
2022-09-07T09:22:28.470Z,1.35
2022-09-07T09:25:08.261Z,1.65
2022-09-07T09:27:35.782Z,1.67
2022-09-07T09:30:03.467Z,1.50
2022-09-07T09:32:36.218Z,1.45
2022-09-07T09:35:03.782Z,1.52
2022-09-07T09:37:38.453Z,1.60
2022-09-07T09:40:08.176Z,1.45
2022-09-07T09:42:38.696Z,1.13
2022-09-07T09:45:12.407Z,1.40
2022-09-07T09:47:40.421Z,1.05
2022-09-07T09:52:28.988Z,1.20
2022-09-07T09:53:05.178Z,1.38
2022-09-07T09:55:35.827Z,1.30
2022-09-07T10:06:21.304Z,1.55
2022-09-07T10:08:56.175Z,1.67
2022-09-07T10:14:31.625Z,1.00
2022-09-07T10:17:00.204Z,1.42
2022-09-07T10:19:37.920Z,1.45
2022-09-07T10:22:31.088Z,1.48
2022-09-07T10:25:00.906Z,1.40
2022-09-07T10:27:40.635Z,1.38
2022-09-07T10:30:15.762Z,1.25
2022-09-07T10:33:02.042Z,1.20
2022-09-07T10:35:32.331Z,1.25
2022-09-07T10:38:10.458Z,1.02
2022-09-07T10:40:45.669Z,1.30
2022-09-07T10:43:23.647Z,1.63
2022-09-07T10:45:57.267Z,1.20
2022-09-07T10:48:39.701Z,1.50
2022-09-07T10:51:14.305Z,1.40
2022-09-07T10:56:56.228Z,1.40
2022-09-07T11:02:23.988Z,1.25
2022-09-07T11:05:06.779Z,1.30
2022-09-07T11:07:40.187Z,1.40
2022-09-07T11:10:17.008Z,1.23
2022-09-07T11:12:45.415Z,1.17
2022-09-07T11:15:12.918Z,1.48
2022-09-07T11:17:53.036Z,1.48
2022-09-07T11:20:27.553Z,1.38
2022-09-07T11:23:13.250Z,1.40
2022-09-07T11:25:46.686Z,2.00
2022-09-07T11:28:16.230Z,1.50
2022-09-07T11:30:49.898Z,1.60
2022-09-07T11:33:20.536Z,1.35
2022-09-07T11:35:50.743Z,1.77
2022-09-07T11:38:25.296Z,1.40
2022-09-07T11:41:01.319Z,1.33
2022-09-07T11:43:41.322Z,1.52
2022-09-07T11:46:14.777Z,1.50
2022-09-07T11:48:42.296Z,1.40
2022-09-07T11:51:14.114Z,1.38
2022-09-07T11:53:46.435Z,1.30
2022-09-07T11:56:45.781Z,1.40
2022-09-07T11:59:23.538Z,1.40
2022-09-07T12:02:00.280Z,1.52
2022-09-07T12:04:34.115Z,1.45
2022-09-07T12:07:11.345Z,1.52
2022-09-07T12:09:55.695Z,1.40
2022-09-07T12:12:42.087Z,1.75
2022-09-07T12:15:19.544Z,1.52
2022-09-07T12:17:47.185Z,1.45
2022-09-07T12:20:18.947Z,1.70
2022-09-07T12:23:04.595Z,1.50
2022-09-07T12:25:33.505Z,1.30
2022-09-07T12:28:01.737Z,1.50
2022-09-07T12:30:30.631Z,1.80
2022-09-07T12:33:04.412Z,1.33
2022-09-07T12:35:38.231Z,1.30
2022-09-07T12:38:26.800Z,1.23
2022-09-07T12:41:22.555Z,1.42
2022-09-07T12:43:50.066Z,1.40
2022-09-07T12:46:41.705Z,1.40
2022-09-07T12:49:19.085Z,1.30
2022-09-07T12:52:09.218Z,1.60
2022-09-07T12:55:10.087Z,1.50
2022-09-07T12:57:41.474Z,1.70
2022-09-07T13:00:28.039Z,1.38
2022-09-07T13:03:05.156Z,1.42
2022-09-07T13:05:32.971Z,1.23
2022-09-07T13:08:10.894Z,1.48
2022-09-07T13:10:44.937Z,1.50
2022-09-07T13:14:00.988Z,1.77
2022-09-07T13:16:07.070Z,1.42
2022-09-07T13:18:38.744Z,1.33
2022-09-07T13:21:09.348Z,1.45
2022-09-07T13:23:40.899Z,1.30
2022-09-07T13:26:09.959Z,1.58
2022-09-07T13:28:40.368Z,1.55
2022-09-07T13:31:26.919Z,1.23
2022-09-07T13:33:54.627Z,1.60
2022-09-07T13:36:34.166Z,1.40
2022-09-07T13:39:01.956Z,1.45
2022-09-07T13:41:35.569Z,1.50
2022-09-07T13:44:03.833Z,1.42
2022-09-07T13:46:31.442Z,1.20
2022-09-07T13:49:03.453Z,1.50
2022-09-07T13:51:38.428Z,1.50
2022-09-07T13:54:11.474Z,1.30
2022-09-07T13:56:42.079Z,1.23
2022-09-07T13:59:24.498Z,1.30
2022-09-07T14:01:52.209Z,1.33
2022-09-07T14:04:35.946Z,1.30
2022-09-07T14:07:07.626Z,1.30
2022-09-07T14:09:35.758Z,1.48
2022-09-07T14:12:03.449Z,1.40
2022-09-07T14:14:33.073Z,1.50
2022-09-07T14:17:00.752Z,1.30
2022-09-07T14:19:45.295Z,1.90
2022-09-07T14:22:17.395Z,1.50
2022-09-07T14:24:49.548Z,1.50
2022-09-07T14:27:21.809Z,1.33
2022-09-07T14:29:49.399Z,1.35
2022-09-07T14:32:18.772Z,1.50
2022-09-07T14:34:46.837Z,1.55
2022-09-07T14:37:15.803Z,1.60
2022-09-07T14:39:45.363Z,1.30
2022-09-07T14:42:15.178Z,1.67
2022-09-07T14:44:43.066Z,1.52
2022-09-07T14:47:21.994Z,1.35
2022-09-07T14:49:54.134Z,1.58
2022-09-07T14:52:36.738Z,1.60
2022-09-07T14:55:09.092Z,1.42
2022-09-07T14:57:37.759Z,1.40
2022-09-07T15:00:23.880Z,1.42
2022-09-07T15:02:51.555Z,1.30
2022-09-07T15:05:19.097Z,2.03
2022-09-07T15:07:57.665Z,1.30
2022-09-07T15:10:25.609Z,1.33
2022-09-07T15:12:54.318Z,1.33
2022-09-07T15:15:27.148Z,1.20
2022-09-07T15:17:55.875Z,1.00
2022-09-07T15:20:35.878Z,1.33
2022-09-07T15:23:04.888Z,1.48
2022-09-07T15:25:33.158Z,1.38
2022-09-07T15:28:01.005Z,1.13
2022-09-07T15:30:28.657Z,1.55
2022-09-07T15:32:57.366Z,1.45
2022-09-07T15:35:25.281Z,1.48
2022-09-07T15:41:10.539Z,1.98
2022-09-07T15:43:32.957Z,1.35
2022-09-07T15:46:00.966Z,1.80
2022-09-07T15:48:29.544Z,1.92
2022-09-07T15:52:04.691Z,1.30
2022-09-07T15:56:44.004Z,1.60
2022-09-07T15:59:30.622Z,1.42
2022-09-07T16:01:58.576Z,1.30
2022-09-07T16:04:26.445Z,1.40
2022-09-07T16:06:54.625Z,1.42
2022-09-07T16:09:22.263Z,1.60
2022-09-07T16:11:50.912Z,1.20
2022-09-07T16:14:18.823Z,1.70
2022-09-07T16:19:35.349Z,1.80
2022-09-07T16:22:03.644Z,1.67
2022-09-07T16:24:31.347Z,1.30
2022-09-07T16:26:58.976Z,1.42
2022-09-07T16:29:26.692Z,1.58
2022-09-07T16:34:41.869Z,1.50
2022-09-07T16:37:09.450Z,1.60
2022-09-07T16:39:37.249Z,1.67
2022-09-07T16:42:04.878Z,1.38
2022-09-07T16:44:34.932Z,1.48
2022-09-07T16:47:04.224Z,1.77
2022-09-07T16:49:32.047Z,1.70
2022-09-07T16:51:59.626Z,1.55
2022-09-07T16:54:27.329Z,1.88
2022-09-07T16:56:54.841Z,1.88
2022-09-07T16:59:26.628Z,1.95
2022-09-07T17:01:54.268Z,1.80
2022-09-07T17:04:22.081Z,2.10
2022-09-07T17:06:51.846Z,1.70
2022-09-07T17:09:20.468Z,1.92
2022-09-07T17:11:48.317Z,2.38
2022-09-07T17:14:16.277Z,2.45
2022-09-07T17:16:44.082Z,1.90
2022-09-07T17:22:00.655Z,1.95
2022-09-07T17:24:32.311Z,2.00
2022-09-07T17:27:00.647Z,2.00
2022-09-07T17:29:30.384Z,1.92
2022-09-07T17:34:46.683Z,1.90
2022-09-07T17:37:14.246Z,1.95
2022-09-07T17:39:41.967Z,2.47
2022-09-07T17:42:09.911Z,2.17
2022-09-07T17:44:38.411Z,1.90
2022-09-07T17:47:06.665Z,2.17
2022-09-07T17:49:34.333Z,2.55
2022-09-07T17:52:02.117Z,2.00
2022-09-07T17:54:29.691Z,2.25
2022-09-07T17:56:57.403Z,2.30
2022-09-07T18:02:15.726Z,2.22
2022-09-07T18:04:43.371Z,2.15
2022-09-07T18:07:11.116Z,2.20
2022-09-07T18:09:39.003Z,2.53
2022-09-07T18:12:06.639Z,2.40
2022-09-07T18:14:34.258Z,2.35
2022-09-07T18:17:01.827Z,2.53
2022-09-07T18:19:29.535Z,2.60
2022-09-07T18:21:57.108Z,2.60
2022-09-07T18:24:25.047Z,2.15
2022-09-07T18:26:53.492Z,2.47
2022-09-07T18:29:32.820Z,2.40
2022-09-07T18:32:02.948Z,2.78
2022-09-07T18:34:31.914Z,2.90
2022-09-07T18:37:00.231Z,2.80
2022-09-07T18:39:28.478Z,2.78
2022-09-07T18:41:56.150Z,2.60
2022-09-07T18:47:21.447Z,2.58
2022-09-07T18:49:51.539Z,2.80
2022-09-07T18:55:08.437Z,2.75
2022-09-07T18:57:36.603Z,2.53
2022-09-07T19:00:05.527Z,2.35
2022-09-07T19:02:33.511Z,2.70
2022-09-07T19:07:49.034Z,2.70
2022-09-07T19:10:17.621Z,2.63
2022-09-07T19:12:46.357Z,3.00
2022-09-07T19:15:14.469Z,2.70
2022-09-07T19:17:42.052Z,2.60
2022-09-07T19:20:10.321Z,2.78
2022-09-07T19:22:38.075Z,2.55
2022-09-07T19:25:06.197Z,2.85
2022-09-07T19:27:33.895Z,2.97
2022-09-07T19:30:01.601Z,2.80
2022-09-07T19:32:29.520Z,2.55
2022-09-07T19:34:57.255Z,2.65
2022-09-07T19:37:25.465Z,2.53
2022-09-07T19:39:56.512Z,2.53
2022-09-07T19:42:24.924Z,2.72
2022-09-07T19:44:53.029Z,3.03
2022-09-07T19:47:21.198Z,2.75
2022-09-07T19:49:48.875Z,2.78
2022-09-07T19:52:16.575Z,3.28
2022-09-07T19:54:44.153Z,2.83
2022-09-07T19:57:11.846Z,2.90
2022-09-07T19:59:39.506Z,3.00
2022-09-07T20:02:07.068Z,3.00
2022-09-07T20:04:35.715Z,2.78
2022-09-07T20:07:03.928Z,2.55
2022-09-07T20:09:31.467Z,2.92
2022-09-07T20:12:01.678Z,2.35
2022-09-07T20:14:29.341Z,2.45
2022-09-07T20:16:57.220Z,2.97
2022-09-07T20:19:24.907Z,2.72
2022-09-07T20:21:55.621Z,3.03
2022-09-07T20:24:23.284Z,3.00
2022-09-07T20:26:51.178Z,2.85
2022-09-07T20:29:28.206Z,3.00
2022-09-07T20:31:57.962Z,2.83
2022-09-07T20:34:26.000Z,2.90
2022-09-07T20:36:53.600Z,2.50
2022-09-07T20:39:21.687Z,3.20
2022-09-07T20:41:49.387Z,3.10
2022-09-07T20:44:17.066Z,2.83
2022-09-07T20:46:44.772Z,3.28
2022-09-07T20:49:12.423Z,2.90
2022-09-07T20:51:40.143Z,3.17
2022-09-07T20:54:07.785Z,2.90
2022-09-07T20:56:35.764Z,2.65
2022-09-07T20:59:03.704Z,3.20
2022-09-07T21:01:32.401Z,2.75
2022-09-07T21:04:00.855Z,2.47
2022-09-07T21:06:28.976Z,3.08
2022-09-07T21:08:57.258Z,2.80
2022-09-07T21:11:26.321Z,2.70
2022-09-07T21:13:58.210Z,2.83
2022-09-07T21:16:26.108Z,2.60
2022-09-07T21:18:55.222Z,2.70
2022-09-07T21:21:23.508Z,2.90
2022-09-07T21:23:55.621Z,2.75
2022-09-07T21:26:24.024Z,2.33
2022-09-07T21:28:58.294Z,2.58
2022-09-07T21:31:26.514Z,2.47
2022-09-07T21:33:55.500Z,2.67
2022-09-07T21:36:23.115Z,2.50
2022-09-07T21:38:50.747Z,2.67
2022-09-07T21:41:19.305Z,2.38
2022-09-07T21:43:46.876Z,2.90
2022-09-07T21:46:18.869Z,2.38
2022-09-07T21:48:47.554Z,2.20
2022-09-07T21:51:15.574Z,2.58
2022-09-07T21:53:43.498Z,2.45
2022-09-07T21:56:12.479Z,2.78
2022-09-07T21:58:40.141Z,2.50
2022-09-07T22:01:17.618Z,2.15
2022-09-07T22:03:46.277Z,2.28
2022-09-07T22:06:14.438Z,2.25
2022-09-07T22:08:42.606Z,2.60
2022-09-07T22:11:11.612Z,2.38
2022-09-07T22:13:39.466Z,2.60
2022-09-07T22:16:07.575Z,2.20
2022-09-07T22:18:37.869Z,2.70
2022-09-07T22:21:09.114Z,2.67
2022-09-07T22:23:38.524Z,2.13
2022-09-07T22:26:06.624Z,2.97
2022-09-07T22:28:34.609Z,2.55
2022-09-07T22:31:19.077Z,2.63
2022-09-07T22:33:47.459Z,2.42
2022-09-07T22:36:16.645Z,2.88
2022-09-07T22:38:45.104Z,2.92
2022-09-07T22:41:16.888Z,2.70
2022-09-07T22:46:12.738Z,2.90
2022-09-07T22:48:40.928Z,2.63
2022-09-07T22:51:08.870Z,2.97
2022-09-07T22:53:37.209Z,2.45
2022-09-07T22:56:08.897Z,2.83
2022-09-07T22:58:37.149Z,2.67
2022-09-07T23:01:05.306Z,2.80
2022-09-07T23:03:33.963Z,2.25
2022-09-07T23:06:01.953Z,2.08
2022-09-07T23:08:29.934Z,2.60
2022-09-07T23:11:02.776Z,2.20
2022-09-07T23:13:30.863Z,2.03
2022-09-07T23:16:03.241Z,2.25
2022-09-07T23:18:30.864Z,2.50
2022-09-07T23:21:00.644Z,2.80
2022-09-07T23:23:28.630Z,2.08
2022-09-07T23:25:56.214Z,1.90
2022-09-07T23:28:23.738Z,1.88
2022-09-07T23:30:51.463Z,2.08
2022-09-07T23:33:19.055Z,1.65
2022-09-07T23:35:56.030Z,1.98
2022-09-07T23:38:23.901Z,1.80
2022-09-07T23:40:51.552Z,2.03
2022-09-07T23:43:19.153Z,2.00
2022-09-07T23:45:46.717Z,2.08
2022-09-07T23:48:14.268Z,1.85
2022-09-07T23:50:43.341Z,1.90
2022-09-07T23:53:11.015Z,1.80
2022-09-07T23:55:38.623Z,1.77
2022-09-07T23:58:06.546Z,2.17
